Time;durP1;ratioP1;P1;durP2;ratioP2;P2;SDS_P1;SDS_P2;PMS_P1;PMS_P2;Temp;Humidity;BMP_temperature;BMP_pressure;BME280_temperature;BME280_humidity;BME280_pressure;Samples;Min_cycle;Max_cycle;Signal;HPM_P1;HPM_P2
2022/02/14 00:01:00;;;;;;;0.20;0.10;;;;;;;1.26;100.00;99462.44;4999009;28;20503;-48
2022/02/14 00:03:27;;;;;;;0.47;0.47;;;;;;;1.51;100.00;99457.06;5006459;28;20465;-48
2022/02/14 00:05:54;;;;;;;0.20;0.20;;;;;;;1.19;100.00;99450.25;5003487;28;20452;-48
2022/02/14 00:08:20;;;;;;;0.30;0.20;;;;;;;1.35;100.00;99445.81;5007075;28;20449;-49
2022/02/14 00:10:47;;;;;;;0.20;0.10;;;;;;;1.15;100.00;99435.44;5000011;28;20453;-48
2022/02/14 00:13:13;;;;;;;0.20;0.10;;;;;;;1.30;100.00;99435.38;5005987;28;20544;-49
2022/02/14 00:15:42;;;;;;;0.20;0.13;;;;;;;1.32;100.00;99436.22;5003037;28;20936;-49
2022/02/14 00:18:09;;;;;;;0.20;0.10;;;;;;;1.39;100.00;99431.84;5014763;28;20975;-49
2022/02/14 00:20:36;;;;;;;0.20;0.20;;;;;;;1.24;100.00;99426.69;5009563;28;20477;-49
2022/02/14 00:23:02;;;;;;;1.03;1.03;;;;;;;1.30;100.00;99417.03;5014408;28;20444;-48
2022/02/14 00:25:29;;;;;;;3.23;2.10;;;;;;;1.32;100.00;99428.38;4998761;28;20474;-48
2022/02/14 00:27:57;;;;;;;28.60;3.70;;;;;;;1.19;100.00;99418.84;5006208;28;20453;-49
2022/02/14 00:30:24;;;;;;;0.20;0.10;;;;;;;1.24;100.00;99419.69;4998073;28;20459;-48
2022/02/14 00:32:50;;;;;;;0.30;0.30;;;;;;;1.11;100.00;99418.03;5006819;28;20555;-48
2022/02/14 00:35:17;;;;;;;0.20;0.20;;;;;;;0.94;100.00;99409.34;5012003;28;20572;-49
2022/02/14 00:37:44;;;;;;;0.20;0.10;;;;;;;0.98;100.00;99408.50;5015167;28;21019;-48
2022/02/14 00:40:11;;;;;;;0.20;0.10;;;;;;;0.87;100.00;99404.16;4996813;28;20511;-48
2022/02/14 00:42:37;;;;;;;1.90;1.80;;;;;;;0.94;100.00;99404.13;5007125;28;20507;-49
2022/02/14 00:45:04;;;;;;;0.20;0.20;;;;;;;0.84;100.00;99400.69;4996919;28;20502;-48
2022/02/14 00:47:31;;;;;;;0.20;0.10;;;;;;;0.81;100.00;99401.56;5007937;28;20452;-48
2022/02/14 00:49:57;;;;;;;0.20;0.10;;;;;;;0.76;100.00;99397.22;4996446;28;20484;-48
2022/02/14 00:52:26;;;;;;;0.20;0.10;;;;;;;0.68;100.00;99396.38;5007486;28;20534;-49
2022/02/14 00:54:57;;;;;;;0.20;0.10;;;;;;;0.77;100.00;99391.13;5008967;28;20827;-48
2022/02/14 00:57:25;;;;;;;0.20;0.10;;;;;;;0.62;100.00;99394.66;4995666;28;20943;-48
2022/02/14 00:59:52;;;;;;;0.20;0.17;;;;;;;0.58;100.00;99400.78;5007819;28;20454;-48
2022/02/14 01:02:19;;;;;;;0.20;0.10;;;;;;;0.64;100.00;99398.13;4995572;28;20870;-49
2022/02/14 01:04:45;;;;;;;0.20;0.10;;;;;;;0.86;100.00;99394.56;5014941;28;20477;-48
2022/02/14 01:07:12;;;;;;;0.20;0.10;;;;;;;0.51;100.00;99376.38;5014412;28;20929;-49
2022/02/14 01:09:39;;;;;;;0.20;0.10;;;;;;;0.58;100.00;99385.09;4994135;28;20488;-48
2022/02/14 01:12:06;;;;;;;0.20;0.10;;;;;;;0.71;100.00;99375.47;5008242;28;20452;-51
2022/02/14 01:14:33;;;;;;;0.20;0.20;;;;;;;0.76;100.00;99377.19;4995337;28;20827;-48
2022/02/14 01:16:59;;;;;;;0.20;0.10;;;;;;;0.69;100.00;99380.72;5024152;28;20484;-48
2022/02/14 01:19:26;;;;;;;0.43;0.43;;;;;;;0.52;100.00;99359.81;5004985;28;20515;-48
2022/02/14 01:21:53;;;;;;;0.20;0.10;;;;;;;0.77;100.00;99365.84;5012048;28;20827;-48
2022/02/14 01:24:19;;;;;;;0.20;0.20;;;;;;;0.86;100.00;99367.56;5010789;28;20461;-48
2022/02/14 01:26:46;;;;;;;0.20;0.10;;;;;;;0.81;100.00;99358.84;5000448;28;20966;-48
2022/02/14 01:29:12;;;;;;;0.43;0.40;;;;;;;0.84;100.00;99367.56;5006873;28;20477;-49
2022/02/14 01:31:39;;;;;;;0.20;0.10;;;;;;;0.82;100.00;99361.47;4995040;28;20512;-49
2022/02/14 01:34:06;;;;;;;0.20;0.20;;;;;;;0.96;100.00;99360.50;5005792;28;20529;-48
2022/02/14 01:36:32;;;;;;;0.20;0.10;;;;;;;0.88;100.00;99365.78;5006240;28;20445;-48
2022/02/14 01:38:59;;;;;;;0.20;0.10;;;;;;;1.00;100.00;99362.25;5005808;28;20453;-48
2022/02/14 01:41:26;;;;;;;0.20;0.10;;;;;;;0.65;100.00;99363.25;4994993;28;20481;-48
2022/02/14 01:43:52;;;;;;;1.90;1.90;;;;;;;0.63;100.00;99359.78;5002962;28;20981;-48
2022/02/14 01:46:19;;;;;;;0.20;0.10;;;;;;;0.71;100.00;99355.41;5017632;28;20456;-49
2022/02/14 01:48:46;;;;;;;0.20;0.10;;;;;;;0.43;100.00;99349.41;5029053;28;20460;-48
2022/02/14 01:51:13;;;;;;;0.20;0.10;;;;;;;0.56;100.00;99347.63;4998885;28;20454;-48
2022/02/14 01:53:40;;;;;;;0.20;0.20;;;;;;;0.58;100.00;99343.25;5002989;28;20492;-48
2022/02/14 01:56:07;;;;;;;0.20;0.10;;;;;;;0.45;100.00;99326.75;4998609;28;20524;-48
2022/02/14 01:58:34;;;;;;;1.20;0.87;;;;;;;0.48;100.00;99326.72;5003327;28;20819;-49
2022/02/14 02:01:00;;;;;;;0.20;0.10;;;;;;;0.43;100.00;99322.41;4998797;28;20450;-48
2022/02/14 02:03:27;;;;;;;0.20;0.10;;;;;;;0.58;100.00;99322.34;5004428;28;20527;-48
2022/02/14 02:05:57;;;;;;;0.20;0.10;;;;;;;0.68;100.00;99324.03;5004462;28;20456;-49
2022/02/14 02:08:24;;;;;;;0.20;0.20;;;;;;;0.66;100.00;99310.09;5004238;28;20445;-48
2022/02/14 02:12:22;;;;;;;0.20;0.10;;;;;;;0.84;100.00;99311.78;4994274;28;20450;-49
2022/02/14 02:13:47;;;;;;;0.20;0.10;;;;;;;1.01;100.00;99303.81;5007083;28;20500;-48
2022/02/14 02:16:15;;;;;;;0.20;0.10;;;;;;;1.33;100.00;99301.84;5020601;28;20854;-49
2022/02/14 02:18:41;;;;;;;0.20;0.10;;;;;;;1.03;100.00;99296.81;5005437;28;20446;-48
2022/02/14 02:21:09;;;;;;;0.20;0.10;;;;;;;0.98;100.00;99293.38;5008257;28;20453;-48
2022/02/14 02:23:41;;;;;;;1.33;0.53;;;;;;;0.88;100.00;99292.56;5012295;28;20476;-48
2022/02/14 02:26:08;;;;;;;0.20;0.10;;;;;;;0.81;100.00;99291.72;4993954;28;20457;-48
2022/02/14 02:28:35;;;;;;;0.20;0.10;;;;;;;0.48;100.00;99292.75;5009591;28;20870;-48
2022/02/14 02:31:03;;;;;;;0.20;0.10;;;;;;;0.62;100.00;99286.59;5004366;28;20454;-48
2022/02/14 02:33:30;;;;;;;0.20;0.10;;;;;;;0.56;100.00;99280.53;4996606;28;20523;-49
2022/02/14 02:35:58;;;;;;;1.57;1.47;;;;;;;0.49;100.00;99278.81;5011123;28;21004;-48
2022/02/14 02:38:26;;;;;;;0.20;0.10;;;;;;;0.37;100.00;99267.53;5010531;28;20869;-49
2022/02/14 02:40:53;;;;;;;0.20;0.10;;;;;;;0.41;100.00;99267.53;4994053;28;20458;-49
2022/02/14 02:43:19;;;;;;;0.20;0.10;;;;;;;0.72;100.00;99260.41;4997247;28;20444;-49
2022/02/14 02:45:46;;;;;;;0.30;0.20;;;;;;;0.64;100.00;99249.09;5002874;28;20481;-49
2022/02/14 02:48:13;;;;;;;0.20;0.10;;;;;;;0.75;100.00;99257.75;4996265;28;20502;-49
2022/02/14 02:51:01;;;;;;;0.20;0.10;;;;;;;0.65;100.00;99245.59;5003005;28;20528;-49
2022/02/14 02:53:27;;;;;;;0.20;0.20;;;;;;;0.65;100.00;99248.22;5013261;28;20535;-49
2022/02/14 02:55:54;;;;;;;0.30;0.20;;;;;;;0.96;100.00;99246.31;5012698;28;20445;-49
2022/02/14 02:58:21;;;;;;;2.20;2.20;;;;;;;0.93;100.00;99246.28;5000543;28;20822;-49
2022/02/14 03:00:48;;;;;;;0.30;0.10;;;;;;;0.70;100.00;99246.47;5012492;28;20453;-49
2022/02/14 03:03:15;;;;;;;0.20;0.10;;;;;;;0.65;100.00;99248.22;4997304;28;20449;-49
2022/02/14 03:05:42;;;;;;;0.30;0.20;;;;;;;0.55;100.00;99244.81;5011406;28;20457;-49
2022/02/14 03:08:08;;;;;;;0.20;0.10;;;;;;;0.62;100.00;99240.41;5009696;28;20453;-49
2022/02/14 03:10:35;;;;;;;0.30;0.20;;;;;;;0.32;100.00;99240.56;4998029;28;20492;-49
2022/02/14 03:13:01;;;;;;;0.20;0.10;;;;;;;0.26;100.00;99238.81;5009360;28;20485;-49
2022/02/14 03:15:28;;;;;;;0.20;0.10;;;;;;;0.32;100.00;99235.34;5001225;28;20468;-49
2022/02/14 03:17:56;;;;;;;0.20;0.13;;;;;;;0.24;100.00;99237.97;5021478;28;20450;-49
2022/02/14 03:20:23;;;;;;;0.20;0.10;;;;;;;0.27;100.00;99237.94;5010836;28;20949;-49
2022/02/14 03:22:50;;;;;;;0.20;0.10;;;;;;;0.27;100.00;99246.69;5013695;28;20479;-49
2022/02/14 03:25:16;;;;;;;0.20;0.10;;;;;;;0.27;100.00;99237.94;5002744;28;20473;-49
2022/02/14 03:27:43;;;;;;;0.53;0.53;;;;;;;0.11;100.00;99236.28;4997442;28;20882;-49
2022/02/14 03:30:10;;;;;;;0.20;0.10;;;;;;;0.17;100.00;99229.31;5010637;28;20445;-48
2022/02/14 03:32:37;;;;;;;0.20;0.10;;;;;;;0.15;100.00;99224.97;4997267;28;20491;-49
2022/02/14 03:35:04;;;;;;;0.20;0.10;;;;;;;0.10;100.00;99227.56;5010084;28;20496;-49
2022/02/14 03:37:31;;;;;;;0.20;0.20;;;;;;;0.22;100.00;99224.03;5005994;28;20452;-49
2022/02/14 03:39:57;;;;;;;0.43;0.40;;;;;;;0.10;100.00;99222.34;5001337;28;20446;-49
2022/02/14 03:42:24;;;;;;;0.20;0.10;;;;;;;0.18;100.00;99212.75;5006069;28;20869;-49
2022/02/14 03:44:50;;;;;;;0.40;0.40;;;;;;;-0.07;100.00;99217.19;5001060;28;20504;-49
2022/02/14 03:47:17;;;;;;;0.20;0.10;;;;;;;0.07;100.00;99203.22;5006105;28;20457;-49
2022/02/14 03:49:44;;;;;;;0.20;0.10;;;;;;;-0.05;100.00;99205.00;5000345;28;20458;-49
2022/02/14 03:52:10;;;;;;;0.20;0.10;;;;;;;0.01;100.00;99205.88;5006111;28;20452;-49
2022/02/14 03:54:37;;;;;;;0.30;0.20;;;;;;;-0.08;100.00;99204.13;5012951;28;20501;-49
2022/02/14 03:57:04;;;;;;;0.30;0.20;;;;;;;-0.09;100.00;99200.66;4996575;28;20496;-48
2022/02/14 03:59:30;;;;;;;1.33;1.33;;;;;;;-0.16;100.00;99200.66;5009428;28;20488;-49
2022/02/14 04:01:57;;;;;;;0.30;0.20;;;;;;;-0.09;100.00;99194.56;4996311;28;20951;-49
2022/02/14 04:04:23;;;;;;;0.30;0.20;;;;;;;-0.08;100.00;99204.13;5009515;28;20596;-48
2022/02/14 04:06:50;;;;;;;0.20;0.10;;;;;;;-0.04;100.00;99208.47;5010526;28;20865;-49
2022/02/14 04:09:18;;;;;;;0.30;0.20;;;;;;;-0.02;100.00;99206.72;4998886;28;20482;-49
2022/02/14 04:11:44;;;;;;;0.37;0.37;;;;;;;0.09;100.00;99207.56;5006889;28;20473;-49
2022/02/14 04:14:11;;;;;;;0.20;0.10;;;;;;;0.05;100.00;99207.56;4998293;28;20525;-48
2022/02/14 04:16:37;;;;;;;0.20;0.10;;;;;;;-0.05;100.00;99201.50;5018897;28;20475;-48
2022/02/14 04:19:04;;;;;;;0.20;0.10;;;;;;;0.16;100.00;99198.81;5004790;28;20499;-49
2022/02/14 04:21:31;;;;;;;0.20;0.10;;;;;;;0.02;100.00;99199.75;5010133;28;20480;-48
2022/02/14 04:23:57;;;;;;;0.20;0.10;;;;;;;0.03;100.00;99204.97;5011480;28;20493;-49
2022/02/14 04:26:24;;;;;;;0.20;0.10;;;;;;;0.11;100.00;99192.72;4996187;28;20462;-48
2022/02/14 04:28:50;;;;;;;0.20;0.10;;;;;;;0.22;100.00;99195.31;5008678;28;20449;-50
2022/02/14 04:31:17;;;;;;;0.20;0.10;;;;;;;0.12;100.00;99191.84;4996111;28;20939;-48
2022/02/14 04:33:44;;;;;;;0.20;0.10;;;;;;;0.34;100.00;99192.63;5009207;28;20506;-49
2022/02/14 04:36:13;;;;;;;0.20;0.10;;;;;;;0.06;100.00;99201.47;5004987;28;20452;-49
2022/02/14 04:38:39;;;;;;;0.20;0.10;;;;;;;0.29;100.00;99197.03;5015552;28;20448;-49
2022/02/14 04:41:06;;;;;;;0.20;0.10;;;;;;;0.10;100.00;99190.13;5003894;28;20950;-49
2022/02/14 04:43:33;;;;;;;0.20;0.10;;;;;;;0.10;100.00;99187.53;5008373;28;21082;-48
2022/02/14 04:45:59;;;;;;;0.20;0.20;;;;;;;0.03;100.00;99194.53;5007669;28;20456;-48
2022/02/14 04:48:28;;;;;;;0.20;0.10;;;;;;;0.14;100.00;99190.13;4996716;28;20488;-49
2022/02/14 04:50:55;;;;;;;0.30;0.30;;;;;;;-0.13;100.00;99180.66;5008450;28;20448;-49
2022/02/14 04:53:21;;;;;;;0.40;0.40;;;;;;;0.01;100.00;99182.34;4995633;28;20457;-49
2022/02/14 04:55:48;;;;;;;0.20;0.10;;;;;;;0.25;100.00;99175.25;5008424;28;20457;-49
2022/02/14 04:58:15;;;;;;;0.20;0.20;;;;;;;0.40;100.00;99176.91;5008699;28;20453;-49
2022/02/14 05:00:41;;;;;;;0.20;0.10;;;;;;;0.25;100.00;99179.59;4995825;28;20449;-48
2022/02/14 05:03:08;;;;;;;0.20;0.10;;;;;;;0.28;100.00;99180.47;5001676;28;20924;-49
2022/02/14 05:05:35;;;;;;;0.20;0.10;;;;;;;0.41;100.00;99183.00;5006480;28;20510;-49
2022/02/14 05:08:01;;;;;;;0.77;0.77;;;;;;;0.39;100.00;99177.78;4995584;28;20457;-49
2022/02/14 05:10:28;;;;;;;0.20;0.10;;;;;;;0.44;100.00;99181.25;4996258;28;20496;-49
2022/02/14 05:12:55;;;;;;;0.40;0.40;;;;;;;0.51;100.00;99174.22;5006786;28;20450;-48
2022/02/14 05:15:21;;;;;;;0.20;0.10;;;;;;;0.54;100.00;99184.66;5007998;28;20497;-48
2022/02/14 05:17:48;;;;;;;0.20;0.10;;;;;;;0.55;100.00;99181.19;5014381;28;20476;-49
2022/02/14 05:20:15;;;;;;;0.20;0.10;;;;;;;0.35;100.00;99183.03;5014642;28;20942;-48
2022/02/14 05:22:41;;;;;;;0.40;0.40;;;;;;;0.33;100.00;99169.13;5014596;28;20457;-48
2022/02/14 05:25:09;;;;;;;0.20;0.10;;;;;;;0.32;100.00;99170.00;5000877;28;20492;-48
2022/02/14 05:27:36;;;;;;;0.20;0.10;;;;;;;0.40;100.00;99174.28;5002070;28;20804;-48
2022/02/14 05:30:07;;;;;;;0.20;0.10;;;;;;;0.76;100.00;99175.81;5000657;28;20582;-48
2022/02/14 05:32:33;;;;;;;0.20;0.10;;;;;;;0.73;100.00;99172.34;5003150;28;20476;-49
2022/02/14 05:35:01;;;;;;;0.20;0.10;;;;;;;0.71;100.00;99185.44;4999910;28;20493;-49
2022/02/14 05:37:28;;;;;;;0.20;0.10;;;;;;;0.98;100.00;99168.69;5014855;28;20449;-49
2022/02/14 05:39:54;;;;;;;0.20;0.10;;;;;;;0.88;100.00;99177.47;5000679;28;20449;-49
2022/02/14 05:42:21;;;;;;;0.20;0.10;;;;;;;0.91;100.00;99180.06;5005974;28;20937;-48
2022/02/14 05:44:48;;;;;;;0.20;0.10;;;;;;;0.92;100.00;99179.16;5003926;28;20465;-48
2022/02/14 05:47:14;;;;;;;2.20;2.10;;;;;;;1.07;100.00;99170.31;5010187;28;20528;-49
2022/02/14 05:49:41;;;;;;;0.20;0.10;;;;;;;1.04;100.00;99179.06;5000077;28;20508;-48
2022/02/14 05:52:08;;;;;;;0.20;0.10;;;;;;;1.13;100.00;99178.13;5003740;28;20488;-49
2022/02/14 05:54:36;;;;;;;0.20;0.10;;;;;;;1.09;100.00;99176.41;4997920;28;20505;-49
2022/02/14 05:57:02;;;;;;;0.20;0.10;;;;;;;1.19;100.00;99168.47;5003907;28;20487;-49
2022/02/14 05:59:29;;;;;;;0.20;0.10;;;;;;;1.20;100.00;99169.34;5000791;28;20487;-49
2022/02/14 06:01:56;;;;;;;0.20;0.20;;;;;;;1.17;100.00;99170.25;5004347;28;20454;-49
2022/02/14 06:04:22;;;;;;;0.20;0.10;;;;;;;1.35;100.00;99171.81;4997227;28;20496;-49
2022/02/14 06:06:49;;;;;;;0.20;0.20;;;;;;;1.32;100.00;99161.38;5014066;28;20456;-48
2022/02/14 06:09:15;;;;;;;0.20;0.10;;;;;;;1.41;100.00;99168.28;4997366;28;20798;-49
2022/02/14 06:11:42;;;;;;;0.20;0.10;;;;;;;1.41;100.00;99171.75;5004107;28;20452;-48
2022/02/14 06:14:09;;;;;;;0.20;0.10;;;;;;;1.39;100.00;99170.91;5000483;28;20493;-49
2022/02/14 06:16:35;;;;;;;0.40;0.40;;;;;;;1.40;100.00;99170.03;5024040;28;20482;-49
2022/02/14 06:19:02;;;;;;;0.20;0.20;;;;;;;1.40;100.00;99164.78;5003239;28;20871;-49
2022/02/14 06:21:29;;;;;;;0.20;0.20;;;;;;;1.42;100.00;99173.50;5008375;28;20518;-49
2022/02/14 06:23:55;;;;;;;0.20;0.10;;;;;;;1.78;100.00;99179.22;5009158;28;20470;-49
2022/02/14 06:26:22;;;;;;;0.20;0.10;;;;;;;1.46;100.00;99169.09;4994148;28;20515;-49
2022/02/14 06:28:49;;;;;;;0.20;0.10;;;;;;;1.58;100.00;99168.09;5011772;28;20456;-48
2022/02/14 06:31:15;;;;;;;0.20;0.10;;;;;;;1.57;100.00;99171.59;5002900;28;20477;-49
2022/02/14 06:33:42;;;;;;;0.40;0.40;;;;;;;1.63;100.00;99177.63;4998421;28;21005;-49
2022/02/14 06:36:10;;;;;;;0.20;0.10;;;;;;;1.66;100.00;99175.00;5012966;28;20532;-49
2022/02/14 06:38:37;;;;;;;1.03;1.03;;;;;;;1.73;100.00;99173.16;5012409;28;20453;-48
2022/02/14 06:41:03;;;;;;;0.20;0.10;;;;;;;1.93;100.00;99181.69;4997775;28;20500;-49
2022/02/14 06:43:30;;;;;;;0.20;0.10;;;;;;;1.80;100.00;99173.97;5003234;28;20526;-48
2022/02/14 06:45:56;;;;;;;3.60;1.63;;;;;;;1.82;100.00;99178.31;5005373;28;20468;-49
2022/02/14 06:48:23;;;;;;;0.20;0.10;;;;;;;1.80;100.00;99173.97;5003616;28;20476;-48
2022/02/14 06:50:50;;;;;;;0.50;0.50;;;;;;;1.84;100.00;99175.66;5005331;28;20457;-49
2022/02/14 06:53:16;;;;;;;0.20;0.10;;;;;;;1.86;100.00;99164.28;5010731;28;20895;-48
2022/02/14 06:55:43;;;;;;;0.30;0.20;;;;;;;1.95;100.00;99168.56;4997488;28;20493;-48
2022/02/14 06:58:10;;;;;;;6.63;2.30;;;;;;;1.98;100.00;99165.91;5010691;28;20508;-49
2022/02/14 07:00:38;;;;;;;0.30;0.20;;;;;;;2.12;100.00;99163.09;4997689;28;20450;-49
2022/02/14 07:03:06;;;;;;;0.20;0.20;;;;;;;2.15;100.00;99163.06;5010216;28;20449;-49
2022/02/14 07:05:33;;;;;;;0.67;0.67;;;;;;;2.19;100.00;99170.84;5001271;28;20445;-49
2022/02/14 07:08:01;;;;;;;0.20;0.10;;;;;;;2.36;100.00;99168.03;5004312;28;20479;-49
2022/02/14 07:10:27;;;;;;;0.30;0.20;;;;;;;2.34;100.00;99168.06;5003278;28;20593;-49
2022/02/14 07:12:54;;;;;;;0.20;0.10;;;;;;;2.33;100.00;99165.44;5004633;28;20452;-49
2022/02/14 07:15:21;;;;;;;0.30;0.30;;;;;;;2.27;100.00;99165.53;5004456;28;20582;-48
2022/02/14 07:17:51;;;;;;;0.20;0.10;;;;;;;2.34;100.00;99161.94;5029490;28;20828;-49
2022/02/14 07:20:18;;;;;;;0.20;0.10;;;;;;;2.36;100.00;99160.16;5003591;28;20477;-49
2022/02/14 07:22:46;;;;;;;0.20;0.10;;;;;;;2.38;100.00;99158.38;5016448;28;20456;-48
2022/02/14 07:25:13;;;;;;;0.20;0.10;;;;;;;2.48;100.00;99162.63;5002813;28;20497;-48
2022/02/14 07:27:40;;;;;;;1.17;1.07;;;;;;;2.64;100.00;99163.25;5005032;28;20463;-49
2022/02/14 07:30:09;;;;;;;0.50;0.50;;;;;;;2.58;100.00;99173.81;5002099;28;20446;-49
2022/02/14 07:32:37;;;;;;;0.20;0.10;;;;;;;2.61;100.00;99172.03;5005456;28;20448;-50
2022/02/14 07:35:04;;;;;;;1.53;1.37;;;;;;;2.68;100.00;99173.66;5000663;28;20505;-50
2022/02/14 07:37:31;;;;;;;0.30;0.20;;;;;;;2.77;100.00;99171.81;5005647;28;20449;-50
2022/02/14 07:39:58;;;;;;;0.20;0.10;;;;;;;2.80;100.00;99169.13;4999910;28;20834;-50
2022/02/14 07:42:24;;;;;;;0.20;0.10;;;;;;;2.84;100.00;99179.53;5005692;28;20486;-49
2022/02/14 07:44:51;;;;;;;1.13;0.73;;;;;;;2.91;100.00;99165.47;4999519;28;20474;-50
2022/02/14 07:47:17;;;;;;;0.30;0.30;;;;;;;2.99;100.00;99178.44;5004474;28;20449;-50
2022/02/14 07:49:44;;;;;;;0.20;0.20;;;;;;;2.99;100.00;99178.44;4999257;28;20516;-50
2022/02/14 07:52:14;;;;;;;0.20;0.10;;;;;;;3.11;100.00;99182.63;5005973;28;20448;-50
2022/02/14 07:54:41;;;;;;;0.20;0.10;;;;;;;3.17;100.00;99178.16;4998526;28;20497;-50
2022/02/14 07:57:07;;;;;;;0.20;0.10;;;;;;;3.10;100.00;99180.91;5005834;28;20488;-50
2022/02/14 07:59:34;;;;;;;0.20;0.10;;;;;;;3.33;100.00;99172.63;4998610;28;20458;-50
2022/02/14 08:02:01;;;;;;;0.20;0.10;;;;;;;3.23;100.00;99178.03;4995822;28;20453;-49
2022/02/14 08:04:27;;;;;;;0.20;0.10;;;;;;;3.18;100.00;99182.50;5008365;28;21041;-50
2022/02/14 08:06:54;;;;;;;0.30;0.30;;;;;;;3.19;100.00;99183.38;5010190;28;20794;-50
2022/02/14 08:09:20;;;;;;;0.20;0.20;;;;;;;3.19;100.00;99170.25;4997880;28;20488;-50
2022/02/14 08:11:47;;;;;;;0.20;0.10;;;;;;;3.28;100.00;99178.81;4995573;28;20491;-50
2022/02/14 08:14:19;;;;;;;0.20;0.10;;;;;;;3.28;100.00;99180.56;5008738;28;20874;-50
2022/02/14 08:16:46;;;;;;;2.10;2.00;;;;;;;3.25;100.00;99176.25;5021360;28;20502;-50
2022/02/14 08:19:12;;;;;;;0.20;0.10;;;;;;;3.43;100.00;99184.72;5002863;28;20452;-50
2022/02/14 08:21:41;;;;;;;2.00;2.00;;;;;;;3.43;100.00;99168.97;5009838;28;20456;-50
2022/02/14 08:24:07;;;;;;;0.20;0.10;;;;;;;3.39;100.00;99169.88;5009156;28;20469;-50
2022/02/14 08:26:38;;;;;;;0.20;0.10;;;;;;;3.47;100.00;99168.88;4995243;28;20964;-50
2022/02/14 08:29:05;;;;;;;0.20;0.10;;;;;;;3.50;100.00;99178.44;5008293;28;20460;-50
2022/02/14 08:31:31;;;;;;;0.20;0.10;;;;;;;3.54;100.00;99170.47;4995095;28;20453;-50
2022/02/14 08:33:58;;;;;;;0.30;0.20;;;;;;;3.69;100.00;99166.69;5007898;28;20481;-50
2022/02/14 08:36:25;;;;;;;0.20;0.10;;;;;;;3.92;100.00;99162.75;5005958;28;20531;-50
2022/02/14 08:38:53;;;;;;;0.20;0.10;;;;;;;3.99;100.00;99159.13;5007881;28;20453;-50
2022/02/14 08:41:20;;;;;;;0.20;0.20;;;;;;;4.11;100.00;99166.75;4995639;28;20454;-50
2022/02/14 08:43:51;;;;;;;0.20;0.10;;;;;;;4.18;100.00;99162.22;5007065;28;20501;-50
2022/02/14 08:46:22;;;;;;;0.30;0.30;;;;;;;4.23;100.00;99155.09;4996212;28;20512;-50
2022/02/14 08:48:50;;;;;;;0.33;0.33;;;;;;;4.43;100.00;99158.19;5006302;28;20474;-50
2022/02/14 08:51:19;;;;;;;0.20;0.10;;;;;;;4.38;100.00;99157.41;4997032;28;20993;-50
2022/02/14 08:53:48;;;;;;;0.20;0.10;;;;;;;4.72;100.00;99158.38;5004975;28;20532;-50
2022/02/14 08:56:14;;;;;;;2.10;1.27;;;;;;;4.52;100.00;99157.97;4997097;28;20492;-50
2022/02/14 08:58:42;;;;;;;0.20;0.20;;;;;;;4.61;100.00;99160.38;5004064;28;20972;-50
2022/02/14 09:01:11;;;;;;;0.20;0.10;;;;;;;4.57;100.00;99161.38;4996092;28;20448;-50
2022/02/14 09:03:41;;;;;;;0.20;0.10;;;;;;;4.56;100.00;99154.38;5003869;28;20481;-50
2022/02/14 09:06:09;;;;;;;0.30;0.20;;;;;;;4.75;100.00;99155.66;5003971;28;20510;-50
2022/02/14 09:08:36;;;;;;;0.20;0.10;;;;;;;4.63;100.00;99149.81;5002881;28;20458;-49
2022/02/14 09:11:03;;;;;;;0.20;0.10;;;;;;;4.70;100.00;99148.78;5000494;28;20511;-49
2022/02/14 09:13:32;;;;;;;0.20;0.10;;;;;;;4.90;100.00;99140.41;5003862;28;20505;-50
2022/02/14 09:16:03;;;;;;;0.30;0.30;;;;;;;4.80;100.00;99134.53;5002666;28;20480;-50
2022/02/14 09:18:29;;;;;;;0.20;0.10;;;;;;;5.01;100.00;99131.34;5014471;28;20467;-51
2022/02/14 09:20:57;;;;;;;0.30;0.20;;;;;;;5.04;100.00;99130.41;4995161;28;20512;-50
2022/02/14 09:23:24;;;;;;;0.20;0.10;;;;;;;5.28;100.00;99132.44;5013292;28;20877;-50
2022/02/14 09:25:51;;;;;;;0.20;0.10;;;;;;;5.33;100.00;99141.06;4992654;28;20516;-51
2022/02/14 09:28:17;;;;;;;0.20;0.20;;;;;;;5.24;100.00;99136.06;5006987;28;20475;-51
2022/02/14 09:30:45;;;;;;;0.30;0.20;;;;;;;5.34;100.00;99134.03;5000305;28;20941;-51
2022/02/14 09:33:11;;;;;;;0.20;0.20;;;;;;;5.20;100.00;99131.75;5000175;28;20946;-51
2022/02/14 09:35:38;;;;;;;0.50;0.50;;;;;;;5.32;100.00;99131.44;5000977;28;20563;-50
2022/02/14 09:38:06;;;;;;;0.57;0.57;;;;;;;5.41;100.00;99132.97;4999825;28;20819;-50
2022/02/14 09:40:36;;;;;;;0.40;0.40;;;;;;;5.40;100.00;99136.50;5001195;28;20444;-50
2022/02/14 09:43:10;;;;;;;2.33;0.97;;;;;;;5.49;100.00;99132.78;4998511;28;20456;-50
2022/02/14 09:45:38;;;;;;;0.20;0.10;;;;;;;5.56;100.00;99132.56;5001780;28;20506;-50
2022/02/14 09:48:07;;;;;;;0.20;0.20;;;;;;;5.58;100.00;99135.16;4997988;28;20504;-50
2022/02/14 09:50:35;;;;;;;0.30;0.30;;;;;;;5.80;100.00;99131.03;5002578;28;20460;-50
2022/02/14 09:53:04;;;;;;;0.20;0.20;;;;;;;5.93;100.00;99126.31;4997160;28;20457;-50
2022/02/14 09:55:31;;;;;;;0.20;0.20;;;;;;;5.77;100.00;99124.97;5003009;28;21051;-49
2022/02/14 09:57:58;;;;;;;0.20;0.20;;;;;;;5.98;100.00;99132.31;4996613;28;20890;-50
2022/02/14 10:00:24;;;;;;;0.70;0.67;;;;;;;6.18;100.00;99121.19;5003277;28;20512;-50
2022/02/14 10:03:15;;;;;;;0.20;0.10;;;;;;;6.43;100.00;99124.78;4996180;28;20462;-50
2022/02/14 10:05:56;;;;;;;0.20;0.10;;;;;;;6.58;100.00;99120.84;5007290;28;20491;-49
2022/02/14 10:08:27;;;;;;;0.30;0.10;;;;;;;6.80;100.00;99116.59;5003757;28;20939;-49
2022/02/14 10:11:10;;;;;;;0.20;0.20;;;;;;;6.71;100.00;99123.94;4996423;28;20503;-49
2022/02/14 10:13:38;;;;;;;0.20;0.10;;;;;;;6.87;100.00;99113.75;5000091;28;20469;-49
2022/02/14 10:16:13;;;;;;;0.60;0.53;;;;;;;6.96;100.00;99118.72;5007079;28;20858;-49
2022/02/14 10:18:41;;;;;;;0.20;0.20;;;;;;;7.10;100.00;99125.28;5005562;28;20480;-49
2022/02/14 10:21:21;;;;;;;0.20;0.20;;;;;;;7.48;100.00;99120.47;5007438;28;20464;-49
2022/02/14 10:24:04;;;;;;;0.30;0.20;;;;;;;7.89;100.00;99112.84;5009557;28;20469;-50
2022/02/14 10:26:39;;;;;;;0.20;0.20;;;;;;;8.14;100.00;99111.00;4992932;28;20496;-49
2022/02/14 10:29:21;;;;;;;0.30;0.20;;;;;;;8.32;100.00;99109.44;5005943;28;20445;-50
2022/02/14 10:31:48;;;;;;;0.20;0.20;;;;;;;8.65;100.00;99103.81;4994859;28;20508;-49
2022/02/14 10:34:17;;;;;;;0.20;0.20;;;;;;;8.79;100.00;99117.34;5017890;23;20872;-52
2022/02/14 10:36:46;;;;;;;0.30;0.10;;;;;;;8.99;100.00;99104.16;4990108;28;20608;-52
2022/02/14 10:39:17;;;;;;;0.30;0.20;;;;;;;9.12;100.00;99118.63;4982791;28;20446;-53
2022/02/14 10:41:46;;;;;;;0.20;0.10;;;;;;;9.13;100.00;99111.53;4992704;28;20578;-53
2022/02/14 10:47:08;;;;;;;0.30;0.20;;;;;;;9.17;100.00;99121.06;4980815;28;20446;-52
2022/02/14 10:49:34;;;;;;;0.20;0.20;;;;;;;9.22;100.00;99120.88;4992730;28;20516;-52
2022/02/14 10:52:06;;;;;;;0.30;0.20;;;;;;;9.31;100.00;99118.69;4992998;28;20496;-53
2022/02/14 10:54:38;;;;;;;0.30;0.20;;;;;;;9.32;100.00;99119.56;4992515;28;20473;-52
2022/02/14 10:57:05;;;;;;;0.30;0.20;;;;;;;9.51;100.00;99123.16;4992571;28;20521;-52
2022/02/14 10:59:33;;;;;;;0.30;0.20;;;;;;;9.44;100.00;99113.72;4992449;28;21604;-53
2022/02/14 11:02:03;;;;;;;0.30;0.20;;;;;;;9.67;100.00;99126.00;4992983;28;20454;-53
2022/02/14 11:04:30;;;;;;;0.30;0.20;;;;;;;9.92;100.00;99123.16;4992602;28;20536;-52
2022/02/14 11:06:58;;;;;;;0.30;0.20;;;;;;;10.21;100.00;99114.75;4992586;28;20445;-53
2022/02/14 11:09:27;;;;;;;0.30;0.20;;;;;;;10.37;100.00;99109.59;4992505;28;20511;-53
2022/02/14 11:11:55;;;;;;;0.30;0.20;;;;;;;10.55;100.00;99116.72;4992481;28;20454;-52
2022/02/14 11:14:23;;;;;;;0.30;0.20;;;;;;;10.75;100.00;99110.44;4992641;28;20473;-53
2022/02/14 11:16:51;;;;;;;0.30;0.20;;;;;;;10.83;100.00;99110.94;4992532;28;20544;-53
2022/02/14 11:19:18;;;;;;;0.30;0.20;;;;;;;10.96;100.00;99116.47;4992452;28;20461;-53
2022/02/14 11:21:46;;;;;;;0.30;0.20;;;;;;;11.18;100.00;99110.97;4992452;28;20815;-53
2022/02/14 11:24:26;;;;;;;0.30;0.20;;;;;;;11.26;100.00;99107.00;4995517;28;20508;-53
2022/02/14 11:27:05;;;;;;;0.30;0.20;;;;;;;11.32;99.34;99108.47;4996081;28;20488;-53
2022/02/14 11:29:40;;;;;;;0.30;0.20;;;;;;;11.33;99.04;99101.34;4996355;28;20477;-53
2022/02/14 11:32:18;;;;;;;0.30;0.20;;;;;;;11.28;98.96;99105.13;4996130;28;20950;-53
2022/02/14 11:34:54;;;;;;;0.30;0.20;;;;;;;11.25;99.41;99107.09;4995600;28;20531;-53
2022/02/14 11:37:21;;;;;;;0.30;0.20;;;;;;;11.38;99.42;99104.66;4983743;28;20484;-53